Terminal Aerodrome Forecast
Issued by NWS

Home | Current Version | Previous Version | Text Only | Print | Product List | Glossary On
Versions: 1 2 3 4 5 6 7 8 9 10 11 12 13 14 15 16 17 18 19 20 21 22 23
000
FTUS44 KOHX 030700 AAA
TAFCKV
TAF AMD
KCKV 030709Z 0307/0406 11003KT P6SM BKN025 OVC030
     FM031300 17006KT 4SM BR VCSH OVC007
     FM031800 21010G18KT 3SM -SHRA BR OVC007
     FM040000 19010G18KT 3SM -SHRA BR OVC003=

USA.gov is the U.S. government's official web portal to all federal, state and local government web resources and services.